Terminal Aerodrome Forecast
Issued by NWS

Home | Current Version | Previous Version | Text Only | Print | Product List | Glossary On
Versions: 1 2 3 4 5 6 7 8 9 10 11 12 13 14 15 16
000
FTUS43 KICT 270520
TAFRSL
TAF
KRSL 270520Z 2706/2806 07009KT P6SM SCT080
     FM270900 11009KT P6SM BKN012 OVC080
     FM271500 16017KT P6SM SCT020 SCT080
     FM271800 16022G30KT P6SM SCT035=

USA.gov is the U.S. government's official web portal to all federal, state and local government web resources and services.